Thunder radar more information blitzortung!


Radar de pluja more information rain snow radar


Visita la nostra xarxa de llocs de meteo:

Template documentation
and downloads

And another site



No particular awareness of the weather is required.    There are no Weather-warnings

Pagina Historial Weather Underground text

Diari Resum Juliol 29, 2017 Unitats:  Imperial    Mètric   Tant
« Previous Dia
SegĂźent Dia »
Diari Setmana Mensual Anual Personalitzada
  Maxima: Minima: Media:
Temperatura: TemperatureC °F 19.7 °F 27.8 °F
Punt de rosada: DewpointC °F 12.6 °F 16.3 °F
Humitat: Humidity % 29 % 52 %
Wind Speed: WindSpeedKMH mph 0.0 mph 6.4 mph
RĂ fegues de vent: WindSpeedGustKMH mph - -
Vent:- - South
Pression baro: PressurehPa in 1011.7 in -
Precipitacions: 0.0 in    
Historical Graphs
 
 
Dades de taula per Juliol 29, 2017
Temps Temperatura Punt de rosada Pression baro Vent Wind Speed RĂ fegues de vent Humitat Rainfall Rate (Hourly)
TemperatureC °F DewpointC °F PressurehPa in Calm     Humidity % HourlyPrecipMM in
00:00 20.6 °F 18.0 °F 1015.8 in Calm   3.2 mph 85 % 0.0 in
00:03 22.9 °F 19.1 °F 1015.8 in NNE 5.6 mph 5.6 mph 79 % 0.0 in
00:10 20.4 °F 17.8 °F 1015.8 in Calm   1.6 mph 85 % 0.0 in
00:20 20.4 °F 17.8 °F 1014.8 in Calm     85 % 0.0 in
00:30 20.3 °F 17.9 °F 1014.8 in SW 1.6 mph 3.2 mph 86 % 0.0 in
00:40 20.2 °F 17.8 °F 1014.8 in SW 1.6 mph 3.2 mph 86 % 0.0 in
00:50 20.2 °F 17.9 °F 1014.8 in Calm   1.6 mph 87 % 0.0 in
01:00 20.2 °F 17.9 °F 1014.8 in Calm     87 % 0.0 in
01:10 20.1 °F 17.9 °F 1014.8 in Calm     87 % 0.0 in
01:20 20.1 °F 18.1 °F 1014.8 in Calm     88 % 0.0 in
01:30 19.9 °F 17.8 °F 1014.8 in Calm     88 % 0.0 in
01:40 19.9 °F 17.8 °F 1014.8 in Calm     88 % 0.0 in
01:50 19.8 °F 17.8 °F 1014.8 in Calm     88 % 0.0 in
02:00 19.7 °F 17.7 °F 1014.8 in Calm     88 % 0.0 in
02:10 19.7 °F 17.7 °F 1015.8 in Calm     88 % 0.0 in
02:20 19.8 °F 17.8 °F 1014.8 in Calm     88 % 0.0 in
02:30 19.8 °F 17.8 °F 1014.8 in South 1.6 mph 1.6 mph 88 % 0.0 in
02:40 19.9 °F 17.8 °F 1014.8 in Calm   3.2 mph 88 % 0.0 in
02:50 20.2 °F 18.2 °F 1015.8 in WSW 1.6 mph 1.6 mph 88 % 0.0 in
03:00 20.6 °F 18.6 °F 1015.8 in Calm   1.6 mph 88 % 0.0 in
03:10 21.0 °F 18.8 °F 1015.8 in ESE 1.6 mph 3.2 mph 87 % 0.0 in
03:20 21.3 °F 18.9 °F 1015.8 in East 1.6 mph 1.6 mph 86 % 0.0 in
03:30 21.5 °F 18.9 °F 1015.8 in SSE 3.2 mph 3.2 mph 85 % 0.0 in
03:40 22.0 °F 19.2 °F 1015.8 in SSW 1.6 mph 3.2 mph 84 % 0.0 in
04:00 23.3 °F 19.1 °F 1015.8 in ENE 1.6 mph 3.2 mph 77 % 0.0 in
04:10 23.5 °F 19.0 °F 1015.8 in ENE 4.8 mph 4.8 mph 76 % 0.0 in
04:20 24.5 °F 19.6 °F 1015.8 in ENE 1.6 mph 3.2 mph 74 % 0.0 in
04:30 24.4 °F 19.0 °F 1015.8 in ENE 3.2 mph 6.4 mph 72 % 0.0 in
04:40 25.1 °F 19.4 °F 1014.8 in Calm   3.2 mph 71 % 0.0 in
04:50 25.5 °F 19.2 °F 1015.8 in NNE 1.6 mph 3.2 mph 68 % 0.0 in
05:00 26.1 °F 19.2 °F 1015.8 in ESE 4.8 mph 6.4 mph 66 % 0.0 in
05:10 26.0 °F 18.9 °F 1015.8 in ESE 3.2 mph 6.4 mph 65 % 0.0 in
05:20 26.4 °F 19.3 °F 1015.8 in East 3.2 mph 6.4 mph 65 % 0.0 in
05:30 26.4 °F 18.6 °F 1015.8 in NE 8.0 mph 8.0 mph 62 % 0.0 in
10:33 26.5 °F 18.6 °F 1015.8 in ENE 5.6 mph 5.6 mph 62 % 0.0 in
10:38 26.7 °F 17.8 °F 1015.8 in East 9.3 mph 9.3 mph 58 % 0.0 in
10:43 26.8 °F 17.8 °F 1015.8 in NNE 5.6 mph 5.6 mph 58 % 0.0 in
10:48 27.1 °F 17.8 °F 1015.8 in SSE 5.6 mph 5.6 mph 57 % 0.0 in
10:53 27.8 °F 18.8 °F 1015.8 in SW 3.9 mph 3.9 mph 58 % 0.0 in
10:58 27.7 °F 18.9 °F 1015.8 in SW 7.4 mph 7.4 mph 59 % 0.0 in
11:03 28.1 °F 19.1 °F 1014.8 in NW 3.9 mph 3.9 mph 58 % 0.0 in
11:08 28.1 °F 19.1 °F 1014.8 in SSW 3.7 mph 3.7 mph 58 % 0.0 in
11:13 29.1 °F 19.1 °F 1014.8 in SSE 4.2 mph 4.2 mph 55 % 0.0 in
11:18 29.2 °F 19.2 °F 1014.8 in NE 7.4 mph 7.4 mph 55 % 0.0 in
11:24 28.4 °F 18.5 °F 1014.8 in ESE 7.4 mph 7.4 mph 55 % 0.0 in
11:29 28.6 °F 18.9 °F 1014.8 in ESE 5.6 mph 5.6 mph 56 % 0.0 in
11:34 28.8 °F 18.8 °F 1014.8 in ENE 4.7 mph 4.7 mph 55 % 0.0 in
11:39 28.4 °F 18.5 °F 1014.8 in East 7.4 mph 7.4 mph 55 % 0.0 in
11:41 28.6 °F 18.7 °F 1014.8 in SSW 3.7 mph 3.7 mph 55 % 0.0 in
11:46 29.6 °F 19.0 °F 1014.8 in South 7.4 mph 7.4 mph 53 % 0.0 in
11:51 30.3 °F 19.9 °F 1014.8 in WSW 5.8 mph 5.8 mph 54 % 0.0 in
11:56 29.9 °F 19.0 °F 1014.8 in East 5.6 mph 5.6 mph 52 % 0.0 in
12:01 30.2 °F 18.9 °F 1014.8 in SE 7.6 mph 7.6 mph 51 % 0.0 in
12:06 30.8 °F 19.8 °F 1014.8 in SE 3.7 mph 3.7 mph 52 % 0.0 in
12:11 30.3 °F 18.7 °F 1014.8 in ESE 7.6 mph 7.6 mph 50 % 0.0 in
12:13 30.0 °F 18.8 °F 1014.8 in ENE 7.4 mph 7.4 mph 51 % 0.0 in
12:18 29.8 °F 18.6 °F 1014.8 in NNE 9.3 mph 9.3 mph 51 % 0.0 in
12:23 30.2 °F 18.6 °F 1014.8 in SE 5.6 mph 5.6 mph 50 % 0.0 in
12:28 31.0 °F 19.3 °F 1014.8 in WSW 7.4 mph 7.4 mph 50 % 0.0 in
12:33 31.6 °F 19.6 °F 1014.8 in SSE 2.6 mph 2.6 mph 49 % 0.0 in
12:38 31.8 °F 19.8 °F 1014.8 in WNW 7.4 mph 7.4 mph 49 % 0.0 in
12:43 30.8 °F 18.5 °F 1014.8 in East 11.1 mph 11.1 mph 48 % 0.0 in
12:48 30.5 °F 18.9 °F 1013.8 in NE 7.4 mph 7.4 mph 50 % 0.0 in
12:53 30.9 °F 18.9 °F 1013.8 in SSE 13.0 mph 13.0 mph 49 % 0.0 in
13:03 31.1 °F 18.8 °F 1013.8 in ESE 11.1 mph 11.1 mph 48 % 0.0 in
13:08 30.4 °F 18.5 °F 1013.8 in ESE 13.0 mph 13.0 mph 49 % 0.0 in
13:13 30.3 °F 18.7 °F 1013.8 in SE 13.0 mph 13.0 mph 50 % 0.0 in
13:18 30.3 °F 18.7 °F 1013.8 in ESE 18.5 mph 18.5 mph 50 % 0.0 in
13:23 30.3 °F 18.7 °F 1013.8 in ENE 14.8 mph 14.8 mph 50 % 0.0 in
13:28 30.3 °F 18.7 °F 1013.8 in NE 14.8 mph 14.8 mph 50 % 0.0 in
13:33 30.6 °F 19.0 °F 1013.8 in ESE 11.1 mph 11.1 mph 50 % 0.0 in
13:38 30.3 °F 18.4 °F 1013.8 in SE 18.5 mph 18.5 mph 49 % 0.0 in
13:43 30.3 °F 18.7 °F 1013.8 in SSE 17.5 mph 17.5 mph 50 % 0.0 in
13:48 30.5 °F 18.9 °F 1013.8 in ENE 16.7 mph 16.7 mph 50 % 0.0 in
13:53 30.5 °F 18.6 °F 1013.8 in ESE 18.5 mph 18.5 mph 49 % 0.0 in
13:58 30.6 °F 18.7 °F 1013.8 in ESE 16.7 mph 16.7 mph 49 % 0.0 in
14:03 30.8 °F 18.8 °F 1013.8 in SSE 16.7 mph 16.7 mph 49 % 0.0 in
14:08 30.4 °F 18.5 °F 1013.8 in SE 24.1 mph 24.1 mph 49 % 0.0 in
14:13 30.5 °F 18.9 °F 1013.8 in ESE 16.7 mph 16.7 mph 50 % 0.0 in
14:18 30.5 °F 18.9 °F 1013.8 in ENE 16.7 mph 16.7 mph 50 % 0.0 in
14:23 30.2 °F 18.6 °F 1013.8 in ESE 19.8 mph 19.8 mph 50 % 0.0 in
14:28 30.4 °F 18.8 °F 1013.8 in WSW 9.3 mph 9.3 mph 50 % 0.0 in
14:33 30.6 °F 19.0 °F 1013.8 in ESE 13.0 mph 13.0 mph 50 % 0.0 in
14:38 30.7 °F 19.1 °F 1013.8 in SSW 9.3 mph 9.3 mph 50 % 0.0 in
14:43 31.2 °F 18.9 °F 1013.8 in SE 11.1 mph 11.1 mph 48 % 0.0 in
14:48 32.5 °F 18.7 °F 1012.8 in South 7.6 mph 7.6 mph 44 % 0.0 in
14:53 33.5 °F 18.4 °F 1012.8 in SW 9.0 mph 9.0 mph 41 % 0.0 in
14:58 33.6 °F 18.6 °F 1012.8 in West 13.0 mph 13.0 mph 41 % 0.0 in
15:03 33.7 °F 17.4 °F 1012.8 in South 7.4 mph 7.4 mph 38 % 0.0 in
15:13 33.7 °F 17.4 °F 1013.8 in SW 11.1 mph 11.1 mph 38 % 0.0 in
15:18 33.9 °F 17.2 °F 1013.8 in SSW 13.0 mph 13.0 mph 37 % 0.0 in
15:23 34.2 °F 17.0 °F 1013.8 in WSW 5.6 mph 5.6 mph 36 % 0.0 in
15:28 34.0 °F 16.4 °F 1013.8 in SW 7.4 mph 7.4 mph 35 % 0.0 in
15:33 34.6 °F 17.3 °F 1013.8 in WSW 6.1 mph 6.1 mph 36 % 0.0 in
15:38 34.9 °F 16.7 °F 1013.8 in SW 11.1 mph 11.1 mph 34 % 0.0 in
15:43 34.6 °F 16.4 °F 1013.8 in West 7.4 mph 7.4 mph 34 % 0.0 in
15:48 34.8 °F 16.2 °F 1013.8 in SSW 5.6 mph 5.6 mph 33 % 0.0 in
15:53 34.8 °F 16.2 °F 1013.8 in South 9.3 mph 9.3 mph 33 % 0.0 in
15:58 34.5 °F 15.4 °F 1013.8 in West 9.3 mph 9.3 mph 32 % 0.0 in
16:03 34.4 °F 15.3 °F 1013.8 in SSW 11.4 mph 11.4 mph 32 % 0.0 in
16:08 34.4 °F 14.8 °F 1013.8 in South 14.8 mph 14.8 mph 31 % 0.0 in
16:13 34.2 °F 15.2 °F 1013.8 in WSW 5.8 mph 5.8 mph 32 % 0.0 in
16:18 33.9 °F 14.9 °F 1013.8 in SSW 7.4 mph 7.4 mph 32 % 0.0 in
16:23 33.9 °F 14.4 °F 1013.8 in SW 20.4 mph 20.4 mph 31 % 0.0 in
16:28 34.0 °F 14.5 °F 1013.8 in SW 9.3 mph 9.3 mph 31 % 0.0 in
16:33 34.1 °F 14.1 °F 1013.8 in South 14.8 mph 14.8 mph 30 % 0.0 in
16:38 34.2 °F 14.2 °F 1013.8 in SSW 7.4 mph 7.4 mph 30 % 0.0 in
16:43 34.4 °F 14.8 °F 1013.8 in WSW 6.4 mph 6.4 mph 31 % 0.0 in
16:48 34.5 °F 14.9 °F 1013.8 in SW 9.3 mph 9.3 mph 31 % 0.0 in
16:53 34.1 °F 14.1 °F 1012.8 in SW 15.6 mph 15.6 mph 30 % 0.0 in
16:58 33.5 °F 13.6 °F 1012.8 in SSW 11.1 mph 11.1 mph 30 % 0.0 in
17:03 33.5 °F 13.6 °F 1013.8 in WNW 13.0 mph 13.0 mph 30 % 0.0 in
17:08 33.6 °F 13.6 °F 1013.8 in SW 11.1 mph 11.1 mph 30 % 0.0 in
17:18 33.5 °F 13.0 °F 1013.8 in ESE 7.4 mph 7.4 mph 29 % 0.0 in
17:23 33.6 °F 13.6 °F 1013.8 in SW 9.3 mph 9.3 mph 30 % 0.0 in
17:28 33.0 °F 12.6 °F 1013.8 in South 14.8 mph 14.8 mph 29 % 0.0 in
17:33 32.9 °F 13.1 °F 1012.8 in South 11.1 mph 11.1 mph 30 % 0.0 in
17:38 33.1 °F 12.7 °F 1012.8 in SSW 13.0 mph 13.0 mph 29 % 0.0 in
17:43 32.5 °F 12.7 °F 1012.8 in SSW 11.1 mph 11.1 mph 30 % 0.0 in
17:48 32.9 °F 13.1 °F 1013.8 in SSW 9.3 mph 9.3 mph 30 % 0.0 in
17:53 32.8 °F 12.9 °F 1013.8 in SW 13.0 mph 13.0 mph 30 % 0.0 in
17:58 32.9 °F 13.6 °F 1013.8 in ESE 7.4 mph 7.4 mph 31 % 0.0 in
18:03 32.9 °F 13.6 °F 1012.8 in SW 11.1 mph 11.1 mph 31 % 0.0 in
18:13 32.5 °F 13.2 °F 1012.8 in SW 14.8 mph 14.8 mph 31 % 0.0 in
18:18 32.1 °F 12.8 °F 1012.8 in SW 13.0 mph 13.0 mph 31 % 0.0 in
18:23 31.9 °F 12.7 °F 1012.8 in SW 16.7 mph 16.7 mph 31 % 0.0 in
18:33 32.1 °F 13.3 °F 1013.8 in SW 11.1 mph 11.1 mph 32 % 0.0 in
18:38 32.0 °F 13.2 °F 1013.8 in SW 6.1 mph 6.1 mph 32 % 0.0 in
18:43 32.1 °F 13.3 °F 1013.8 in SSW 5.6 mph 5.6 mph 32 % 0.0 in
18:48 32.2 °F 13.4 °F 1012.8 in SSW 7.6 mph 7.6 mph 32 % 0.0 in
18:53 31.7 °F 13.4 °F 1012.8 in WSW 13.0 mph 13.0 mph 33 % 0.0 in
18:58 31.6 °F 13.4 °F 1012.8 in South 11.1 mph 11.1 mph 33 % 0.0 in
19:03 31.7 °F 13.9 °F 1012.8 in SW 9.3 mph 9.3 mph 34 % 0.0 in
19:08 31.4 °F 13.7 °F 1012.8 in SW 9.3 mph 9.3 mph 34 % 0.0 in
19:13 31.0 °F 13.3 °F 1012.8 in SW 13.0 mph 13.0 mph 34 % 0.0 in
19:18 31.2 °F 13.5 °F 1012.8 in SW 9.3 mph 9.3 mph 34 % 0.0 in
19:23 30.9 °F 13.7 °F 1012.8 in South 9.7 mph 9.7 mph 35 % 0.0 in
19:28 30.5 °F 13.7 °F 1012.8 in WSW 10.0 mph 10.0 mph 36 % 0.0 in
19:33 30.6 °F 13.8 °F 1012.8 in SSE 6.9 mph 6.9 mph 36 % 0.0 in
19:38 30.4 °F 13.7 °F 1012.8 in SW 7.4 mph 7.4 mph 36 % 0.0 in
19:43 30.4 °F 13.7 °F 1012.8 in SW 9.3 mph 9.3 mph 36 % 0.0 in
19:48 30.3 °F 13.6 °F 1012.8 in SW 7.9 mph 7.9 mph 36 % 0.0 in
19:53 30.0 °F 13.3 °F 1012.8 in SW 7.4 mph 7.4 mph 36 % 0.0 in
20:03 29.7 °F 13.9 °F 1011.7 in SW 5.6 mph 5.6 mph 38 % 0.0 in
20:08 29.6 °F 13.8 °F 1011.7 in SSW 3.7 mph 3.7 mph 38 % 0.0 in
20:13 29.5 °F 13.7 °F 1011.7 in South 9.3 mph 9.3 mph 38 % 0.0 in
20:18 29.4 °F 13.6 °F 1012.8 in SE 5.0 mph 5.0 mph 38 % 0.0 in
20:23 29.3 °F 13.5 °F 1012.8 in SW 6.4 mph 6.4 mph 38 % 0.0 in
20:28 29.2 °F 13.8 °F 1012.8 in West 7.4 mph 7.4 mph 39 % 0.0 in
20:33 29.0 °F 13.7 °F 1011.7 in WSW 3.7 mph 3.7 mph 39 % 0.0 in
20:38 28.9 °F 14.3 °F 1011.7 in West 7.4 mph 7.4 mph 41 % 0.0 in
20:40 23.0 °F 16.3 °F 1012.8 in Calm     66 % 0.0 in
20:43 28.6 °F 14.1 °F 1011.7 in SW 5.6 mph 5.6 mph 41 % 0.0 in
20:48 28.5 °F 13.9 °F 1012.8 in SW 4.7 mph 4.7 mph 41 % 0.0 in
20:50 23.0 °F 16.6 °F 1012.8 in Calm     67 % 0.0 in
20:53 28.4 °F 14.2 °F 1012.8 in SW 3.7 mph 3.7 mph 42 % 0.0 in
20:58 28.2 °F 14.1 °F 1012.8 in SW 5.8 mph 5.8 mph 42 % 0.0 in
21:00 22.9 °F 16.4 °F 1012.8 in Calm     67 % 0.0 in
21:03 28.0 °F 13.9 °F 1012.8 in WSW 7.6 mph 7.6 mph 42 % 0.0 in
21:08 27.8 °F 14.1 °F 1012.8 in WSW 5.8 mph 5.8 mph 43 % 0.0 in
21:10 22.8 °F 16.6 °F 1012.8 in Calm     68 % 0.0 in
21:13 27.6 °F 13.9 °F 1012.8 in SW 5.6 mph 5.6 mph 43 % 0.0 in
21:18 27.5 °F 14.2 °F 1012.8 in SW 4.7 mph 4.7 mph 44 % 0.0 in
21:20 22.7 °F 16.5 °F 1013.8 in Calm   3.2 mph 68 % 0.0 in
21:23 27.3 °F 14.0 °F 1012.8 in SSW 5.6 mph 5.6 mph 44 % 0.0 in
21:28 27.2 °F 14.2 °F 1012.8 in SW 5.6 mph 5.6 mph 45 % 0.0 in
21:33 27.0 °F 14.1 °F 1012.8 in SW 3.7 mph 3.7 mph 45 % 0.0 in
21:38 26.8 °F 14.6 °F 1012.8 in SW 5.6 mph 5.6 mph 47 % 0.0 in
21:40 22.3 °F 16.3 °F 1012.8 in Calm   1.6 mph 69 % 0.0 in
21:43 26.7 °F 14.4 °F 1012.8 in SW 3.7 mph 3.7 mph 47 % 0.0 in
21:48 26.6 °F 14.3 °F 1012.8 in SW 5.6 mph 5.6 mph 47 % 0.0 in
21:50 22.2 °F 16.2 °F 1012.8 in ENE 1.6 mph 3.2 mph 69 % 0.0 in
21:53 26.5 °F 14.6 °F 1012.8 in SW 3.7 mph 3.7 mph 48 % 0.0 in
21:58 26.3 °F 14.4 °F 1012.8 in SW 4.2 mph 4.2 mph 48 % 0.0 in
22:00 22.1 °F 16.2 °F 1012.8 in ENE 1.6 mph 3.2 mph 69 % 0.0 in
22:03 26.2 °F 14.7 °F 1013.8 in SSW 1.9 mph 1.9 mph 49 % 0.0 in
22:08 26.1 °F 14.6 °F 1013.8 in WSW 1.9 mph 1.9 mph 49 % 0.0 in
22:10 21.8 °F 15.8 °F 1012.8 in NE 3.2 mph 3.2 mph 69 % 0.0 in
22:13 26.1 °F 14.6 °F 1013.8 in WSW 3.7 mph 3.7 mph 49 % 0.0 in
22:18 25.9 °F 14.7 °F 1013.8 in WSW 1.9 mph   50 % 0.0 in
22:20 21.6 °F 15.7 °F 1012.8 in NE 1.6 mph 3.2 mph 69 % 0.0 in
22:23 25.8 °F 14.6 °F 1013.8 in WSW 3.7 mph 3.7 mph 50 % 0.0 in
22:28 25.8 °F 14.9 °F 1013.8 in Calm     51 % 0.0 in
22:30 21.6 °F 15.4 °F 1012.8 in Calm   3.2 mph 68 % 0.0 in
22:33 25.7 °F 14.8 °F 1013.8 in West 1.9 mph   51 % 0.0 in
22:38 25.6 °F 15.0 °F 1013.8 in West 2.3 mph   52 % 0.0 in
22:40 21.5 °F 15.1 °F 1011.7 in Calm     67 % 0.0 in
22:43 25.6 °F 15.0 °F 1013.8 in West 1.9 mph   52 % 0.0 in
22:48 25.5 °F 15.2 °F 1013.8 in West 1.9 mph 1.9 mph 53 % 0.0 in
22:50 21.4 °F 15.7 °F 1012.8 in Calm     70 % 0.0 in
22:53 25.5 °F 15.2 °F 1013.8 in WSW 3.7 mph 3.7 mph 53 % 0.0 in
22:58 25.4 °F 15.4 °F 1013.8 in WSW 3.7 mph 3.7 mph 54 % 0.0 in
23:00 21.1 °F 14.9 °F 1012.8 in Calm     68 % 0.0 in
23:03 25.4 °F 15.4 °F 1012.8 in SW 3.7 mph 3.7 mph 54 % 0.0 in
23:08 25.3 °F 15.3 °F 1012.8 in SW 1.9 mph   54 % 0.0 in
23:10 21.2 °F 14.8 °F 1011.7 in Calm     67 % 0.0 in
23:13 25.1 °F 15.4 °F 1012.8 in WSW 1.9 mph   55 % 0.0 in
23:18 25.1 °F 15.4 °F 1012.8 in West 3.7 mph 3.7 mph 55 % 0.0 in
23:20 21.2 °F 15.3 °F 1011.7 in Calm     69 % 0.0 in
23:23 25.0 °F 15.6 °F 1012.8 in WSW 1.9 mph   56 % 0.0 in
23:30 21.1 °F 14.9 °F 1011.7 in NNE 1.6 mph 1.6 mph 68 % 0.0 in
23:33 25.0 °F 15.6 °F 1013.8 in West 3.2 mph 3.2 mph 56 % 0.0 in
23:38 24.9 °F 15.8 °F 1013.8 in WSW 3.7 mph 3.7 mph 57 % 0.0 in
23:40 21.2 °F 14.8 °F 1011.7 in Calm   1.6 mph 67 % 0.0 in
23:43 24.9 °F 16.1 °F 1013.8 in WSW 3.7 mph   58 % 0.0 in
23:49 24.8 °F 16.0 °F 1013.8 in West 1.9 mph   58 % 0.0 in
23:50 21.1 °F 15.2 °F 1011.7 in Calm     69 % 0.0 in
23:54 24.7 °F 16.2 °F 1013.8 in West 1.9 mph   59 % 0.0 in
23:59 24.7 °F 16.2 °F 1013.8 in WNW 3.7 mph 3.7 mph 59 % 0.0 in
Meteo Sesrovires
Elogis d' Weather Underground - 1.5 mb

Guio original per  Jim McMurry - jmcmurry@mwt.net Adaptat per a la plantilla per  Wim van der Kuil - Leuven-Template.eu

Trobareu la nostra informacio del temps tambe a:

Weather Underground

AWEKAS